sensor_id;sensor_type;location;lat;lon;timestamp;pressure;altitude;pressure_sealevel;temperature;humidity
33554;BME280;19885;42.208;24.952;2022-11-20T00:00:24;99286.13;;;16.03;87.04
33554;BME280;19885;42.208;24.952;2022-11-20T00:02:49;99286.44;;;15.91;87.02
33554;BME280;19885;42.208;24.952;2022-11-20T00:05:15;99286.75;;;15.79;88.35
33554;BME280;19885;42.208;24.952;2022-11-20T00:07:40;99282.44;;;15.75;88.93
33554;BME280;19885;42.208;24.952;2022-11-20T00:10:06;99275.38;;;15.77;89.83
33554;BME280;19885;42.208;24.952;2022-11-20T00:12:32;99279.47;;;15.90;88.82
33554;BME280;19885;42.208;24.952;2022-11-20T00:14:57;99280.50;;;15.83;88.12
33554;BME280;19885;42.208;24.952;2022-11-20T00:17:22;99284.13;;;15.77;88.74
33554;BME280;19885;42.208;24.952;2022-11-20T00:19:48;99286.75;;;15.79;89.57
33554;BME280;19885;42.208;24.952;2022-11-20T00:22:13;99278.91;;;15.76;90.37
33554;BME280;19885;42.208;24.952;2022-11-20T00:24:39;99246.38;;;15.43;91.25
33554;BME280;19885;42.208;24.952;2022-11-20T00:27:04;99278.00;;;15.77;90.77
33554;BME280;19885;42.208;24.952;2022-11-20T00:29:30;99284.72;;;15.88;90.36
33554;BME280;19885;42.208;24.952;2022-11-20T00:31:55;99279.47;;;15.90;89.59
33554;BME280;19885;42.208;24.952;2022-11-20T00:34:20;99282.94;;;15.90;90.05
33554;BME280;19885;42.208;24.952;2022-11-20T00:36:46;99287.06;;;16.00;91.19
33554;BME280;19885;42.208;24.952;2022-11-20T00:39:11;99278.97;;;16.09;92.08
33554;BME280;19885;42.208;24.952;2022-11-20T00:41:37;99276.50;;;16.02;91.76
33554;BME280;19885;42.208;24.952;2022-11-20T00:44:02;99276.38;;;16.08;91.02
33554;BME280;19885;42.208;24.952;2022-11-20T00:46:28;99234.75;;;15.91;89.08
33554;BME280;19885;42.208;24.952;2022-11-20T00:48:53;99283.28;;;16.12;89.59
33554;BME280;19885;42.208;24.952;2022-11-20T00:51:22;99280.88;;;16.03;91.20
33554;BME280;19885;42.208;24.952;2022-11-20T00:53:48;99282.94;;;15.90;93.63
33554;BME280;19885;42.208;24.952;2022-11-20T00:56:16;99237.06;;;15.68;94.60
33554;BME280;19885;42.208;24.952;2022-11-20T00:58:44;99287.56;;;16.16;92.76
33554;BME280;19885;42.208;24.952;2022-11-20T01:03:39;99290.22;;;16.14;93.23
33554;BME280;19885;42.208;24.952;2022-11-20T01:06:07;99285.44;;;16.30;91.76
33554;BME280;19885;42.208;24.952;2022-11-20T01:08:35;99279.47;;;16.23;93.02
33554;BME280;19885;42.208;24.952;2022-11-20T01:11:07;99228.31;;;16.03;92.83
33554;BME280;19885;42.208;24.952;2022-11-20T01:13:33;99276.16;;;16.49;92.09
33554;BME280;19885;42.208;24.952;2022-11-20T01:16:18;99275.09;;;16.58;90.29
33554;BME280;19885;42.208;24.952;2022-11-20T01:18:46;99288.19;;;16.59;90.35
33554;BME280;19885;42.208;24.952;2022-11-20T01:21:23;99271.88;;;16.47;92.27
33554;BME280;19885;42.208;24.952;2022-11-20T01:23:50;99213.69;;;16.25;92.33
33554;BME280;19885;42.208;24.952;2022-11-20T01:26:21;99263.63;;;16.60;92.11
33554;BME280;19885;42.208;24.952;2022-11-20T01:28:47;99254.66;;;16.67;91.41
33554;BME280;19885;42.208;24.952;2022-11-20T01:33:40;99268.03;;;16.90;89.32
33554;BME280;19885;42.208;24.952;2022-11-20T01:36:07;99254.84;;;16.92;89.10
33554;BME280;19885;42.208;24.952;2022-11-20T01:38:33;99259.22;;;16.91;90.31
33554;BME280;19885;42.208;24.952;2022-11-20T01:40:58;99237.91;;;17.00;90.40
33554;BME280;19885;42.208;24.952;2022-11-20T01:43:24;99227.91;;;17.11;89.58
33554;BME280;19885;42.208;24.952;2022-11-20T01:48:17;99223.28;;;16.90;90.87
33554;BME280;19885;42.208;24.952;2022-11-20T01:50:43;99176.31;;;16.77;89.95
33554;BME280;19885;42.208;24.952;2022-11-20T01:53:12;99230.06;;;17.27;88.22
33554;BME280;19885;42.208;24.952;2022-11-20T01:55:43;99236.00;;;17.33;87.56
33554;BME280;19885;42.208;24.952;2022-11-20T01:58:11;99212.41;;;17.30;88.12
33554;BME280;19885;42.208;24.952;2022-11-20T02:00:36;99208.09;;;17.28;88.04
33554;BME280;19885;42.208;24.952;2022-11-20T02:03:20;99224.63;;;17.33;87.83
33554;BME280;19885;42.208;24.952;2022-11-20T02:05:55;99208.72;;;17.36;87.73
33554;BME280;19885;42.208;24.952;2022-11-20T02:08:21;99209.00;;;17.27;87.45
33554;BME280;19885;42.208;24.952;2022-11-20T02:10:48;99186.50;;;17.17;86.92
33554;BME280;19885;42.208;24.952;2022-11-20T02:13:14;99220.41;;;17.27;86.62
33554;BME280;19885;42.208;24.952;2022-11-20T02:15:58;99228.25;;;17.01;88.43
33554;BME280;19885;42.208;24.952;2022-11-20T02:18:24;99202.22;;;16.90;88.16
33554;BME280;19885;42.208;24.952;2022-11-20T02:21:03;99198.22;;;16.77;89.69
33554;BME280;19885;42.208;24.952;2022-11-20T02:26:15;99167.00;;;16.34;89.91
33554;BME280;19885;42.208;24.952;2022-11-20T02:28:42;99203.75;;;16.36;91.74
33554;BME280;19885;42.208;24.952;2022-11-20T02:31:07;99151.66;;;16.18;91.76
33554;BME280;19885;42.208;24.952;2022-11-20T02:33:32;99185.06;;;16.47;90.16
33554;BME280;19885;42.208;24.952;2022-11-20T02:35:58;99200.84;;;16.47;89.98
33554;BME280;19885;42.208;24.952;2022-11-20T02:38:23;99193.34;;;16.33;89.90
33554;BME280;19885;42.208;24.952;2022-11-20T02:40:49;99198.72;;;15.95;91.04
33554;BME280;19885;42.208;24.952;2022-11-20T02:43:15;99177.22;;;16.13;90.76
33554;BME280;19885;42.208;24.952;2022-11-20T02:45:40;99188.84;;;16.04;90.72
33554;BME280;19885;42.208;24.952;2022-11-20T02:48:06;99190.88;;;15.59;92.80
33554;BME280;19885;42.208;24.952;2022-11-20T02:50:32;99196.09;;;15.23;95.15
33554;BME280;19885;42.208;24.952;2022-11-20T02:52:58;99190.31;;;15.07;96.75
33554;BME280;19885;42.208;24.952;2022-11-20T02:55:23;99191.09;;;15.50;94.50
33554;BME280;19885;42.208;24.952;2022-11-20T02:57:49;99205.81;;;15.57;92.45
33554;BME280;19885;42.208;24.952;2022-11-20T03:00:14;99198.09;;;15.51;92.70
33554;BME280;19885;42.208;24.952;2022-11-20T03:02:39;99142.81;;;15.19;93.14
33554;BME280;19885;42.208;24.952;2022-11-20T03:05:05;99203.59;;;15.39;93.71
33554;BME280;19885;42.208;24.952;2022-11-20T03:07:30;99221.91;;;15.41;93.59
33554;BME280;19885;42.208;24.952;2022-11-20T03:09:56;99210.53;;;15.40;93.84
33554;BME280;19885;42.208;24.952;2022-11-20T03:12:21;99198.59;;;15.27;93.95
33554;BME280;19885;42.208;24.952;2022-11-20T03:14:46;99162.44;;;15.03;95.12
33554;BME280;19885;42.208;24.952;2022-11-20T03:17:12;99198.41;;;15.36;95.97
33554;BME280;19885;42.208;24.952;2022-11-20T03:19:37;99181.78;;;15.36;95.73
33554;BME280;19885;42.208;24.952;2022-11-20T03:22:03;99197.34;;;15.45;96.11
33554;BME280;19885;42.208;24.952;2022-11-20T03:24:28;99195.47;;;15.51;96.04
33554;BME280;19885;42.208;24.952;2022-11-20T03:26:54;99182.13;;;15.59;95.77
33554;BME280;19885;42.208;24.952;2022-11-20T03:29:19;99194.22;;;15.66;94.92
33554;BME280;19885;42.208;24.952;2022-11-20T03:31:44;99191.41;;;15.72;94.14
33554;BME280;19885;42.208;24.952;2022-11-20T03:34:11;99196.31;;;15.86;93.59
33554;BME280;19885;42.208;24.952;2022-11-20T03:36:38;99192.88;;;15.85;93.33
33554;BME280;19885;42.208;24.952;2022-11-20T03:39:04;99184.94;;;15.87;92.93
33554;BME280;19885;42.208;24.952;2022-11-20T03:41:31;99179.91;;;15.78;93.20
33554;BME280;19885;42.208;24.952;2022-11-20T03:44:04;99194.09;;;15.70;94.03
33554;BME280;19885;42.208;24.952;2022-11-20T03:46:29;99192.03;;;15.83;92.85
33554;BME280;19885;42.208;24.952;2022-11-20T03:48:55;99158.13;;;15.73;92.06
33554;BME280;19885;42.208;24.952;2022-11-20T03:51:23;99172.38;;;15.98;91.92
33554;BME280;19885;42.208;24.952;2022-11-20T03:53:50;99125.72;;;15.74;91.80
33554;BME280;19885;42.208;24.952;2022-11-20T03:56:17;99167.94;;;16.00;91.24
33554;BME280;19885;42.208;24.952;2022-11-20T03:58:43;99179.81;;;16.14;90.85
33554;BME280;19885;42.208;24.952;2022-11-20T04:01:11;99182.31;;;16.19;89.88
33554;BME280;19885;42.208;24.952;2022-11-20T04:03:38;99173.63;;;16.15;90.20
33554;BME280;19885;42.208;24.952;2022-11-20T04:06:06;99192.72;;;16.23;89.83
33554;BME280;19885;42.208;24.952;2022-11-20T04:08:32;99181.28;;;16.24;88.90
33554;BME280;19885;42.208;24.952;2022-11-20T04:11:28;99177.22;;;16.13;89.60
33554;BME280;19885;42.208;24.952;2022-11-20T04:13:57;99186.00;;;16.12;90.06
33554;BME280;19885;42.208;24.952;2022-11-20T04:16:24;99196.34;;;16.18;89.64
33554;BME280;19885;42.208;24.952;2022-11-20T04:18:53;99195.38;;;16.22;88.69
33554;BME280;19885;42.208;24.952;2022-11-20T04:21:20;99194.66;;;16.17;87.90
33554;BME280;19885;42.208;24.952;2022-11-20T04:23:45;99205.31;;;16.11;88.03
33554;BME280;19885;42.208;24.952;2022-11-20T04:26:11;99196.97;;;15.95;89.11
33554;BME280;19885;42.208;24.952;2022-11-20T04:28:38;99187.50;;;15.90;89.41
33554;BME280;19885;42.208;24.952;2022-11-20T04:31:12;99193.69;;;15.86;89.85
33554;BME280;19885;42.208;24.952;2022-11-20T04:33:38;99197.25;;;15.85;89.58
33554;BME280;19885;42.208;24.952;2022-11-20T04:36:06;99187.75;;;15.79;90.11
33554;BME280;19885;42.208;24.952;2022-11-20T04:38:33;99201.63;;;15.84;90.43
33554;BME280;19885;42.208;24.952;2022-11-20T04:41:00;99187.50;;;15.88;90.32
33554;BME280;19885;42.208;24.952;2022-11-20T04:43:26;99186.66;;;15.88;89.84
33554;BME280;19885;42.208;24.952;2022-11-20T04:45:53;99182.19;;;15.91;89.58
33554;BME280;19885;42.208;24.952;2022-11-20T04:48:18;99197.84;;;15.96;89.61
33554;BME280;19885;42.208;24.952;2022-11-20T04:50:43;99195.19;;;15.96;89.70
33554;BME280;19885;42.208;24.952;2022-11-20T04:53:11;99205.00;;;15.89;89.73
33554;BME280;19885;42.208;24.952;2022-11-20T04:55:36;99204.22;;;15.86;90.28
33554;BME280;19885;42.208;24.952;2022-11-20T04:58:02;99195.66;;;15.78;90.37
33554;BME280;19885;42.208;24.952;2022-11-20T05:00:30;99209.63;;;15.80;90.34
33554;BME280;19885;42.208;24.952;2022-11-20T05:02:56;99199.22;;;15.75;90.48
33554;BME280;19885;42.208;24.952;2022-11-20T05:05:21;99191.34;;;15.75;90.68
33554;BME280;19885;42.208;24.952;2022-11-20T05:07:46;99192.16;;;15.79;90.11
33554;BME280;19885;42.208;24.952;2022-11-20T05:10:12;99199.13;;;15.80;89.72
33554;BME280;19885;42.208;24.952;2022-11-20T05:12:37;99195.38;;;15.88;89.55
33554;BME280;19885;42.208;24.952;2022-11-20T05:15:03;99158.38;;;15.63;89.79
33554;BME280;19885;42.208;24.952;2022-11-20T05:17:28;99170.97;;;15.85;89.46
33554;BME280;19885;42.208;24.952;2022-11-20T05:19:54;99174.19;;;15.96;88.60
33554;BME280;19885;42.208;24.952;2022-11-20T05:22:19;99189.13;;;15.94;88.29
33554;BME280;19885;42.208;24.952;2022-11-20T05:24:44;99181.31;;;15.91;87.37
33554;BME280;19885;42.208;24.952;2022-11-20T05:27:10;99204.84;;;15.95;87.39
33554;BME280;19885;42.208;24.952;2022-11-20T05:29:35;99204.38;;;15.80;87.91
33554;BME280;19885;42.208;24.952;2022-11-20T05:32:01;99201.38;;;15.59;88.99
33554;BME280;19885;42.208;24.952;2022-11-20T05:34:26;99199.53;;;15.63;89.09
33554;BME280;19885;42.208;24.952;2022-11-20T05:36:52;99197.63;;;15.69;88.57
33554;BME280;19885;42.208;24.952;2022-11-20T05:39:17;99198.13;;;15.85;87.92
33554;BME280;19885;42.208;24.952;2022-11-20T05:41:43;99193.41;;;15.98;86.94
33554;BME280;19885;42.208;24.952;2022-11-20T05:44:12;99180.25;;;15.98;86.47
33554;BME280;19885;42.208;24.952;2022-11-20T05:46:38;99195.03;;;16.02;86.25
33554;BME280;19885;42.208;24.952;2022-11-20T05:49:07;99181.19;;;15.97;86.23
33554;BME280;19885;42.208;24.952;2022-11-20T05:51:33;99193.47;;;15.95;86.29
33554;BME280;19885;42.208;24.952;2022-11-20T05:53:59;99216.84;;;16.05;86.16
33554;BME280;19885;42.208;24.952;2022-11-20T05:56:24;99219.84;;;15.90;85.96
33554;BME280;19885;42.208;24.952;2022-11-20T05:58:51;99224.41;;;15.84;86.60
33554;BME280;19885;42.208;24.952;2022-11-20T06:01:24;99213.53;;;15.63;87.78
33554;BME280;19885;42.208;24.952;2022-11-20T06:03:50;99219.88;;;15.55;89.09
33554;BME280;19885;42.208;24.952;2022-11-20T06:06:18;99216.13;;;15.65;87.88
33554;BME280;19885;42.208;24.952;2022-11-20T06:08:53;99224.03;;;15.63;87.96
33554;BME280;19885;42.208;24.952;2022-11-20T06:11:19;99236.50;;;15.54;88.27
33554;BME280;19885;42.208;24.952;2022-11-20T06:13:45;99232.22;;;15.51;88.66
33554;BME280;19885;42.208;24.952;2022-11-20T06:16:12;99219.66;;;15.24;89.21
33554;BME280;19885;42.208;24.952;2022-11-20T06:18:38;99236.75;;;15.43;89.50
33554;BME280;19885;42.208;24.952;2022-11-20T06:23:32;99245.22;;;15.57;87.50
33554;BME280;19885;42.208;24.952;2022-11-20T06:26:01;99256.72;;;15.12;89.48
33554;BME280;19885;42.208;24.952;2022-11-20T06:28:26;99259.00;;;14.86;90.17
33554;BME280;19885;42.208;24.952;2022-11-20T06:30:52;99234.13;;;15.05;90.21
33554;BME280;19885;42.208;24.952;2022-11-20T06:33:17;99247.47;;;14.94;90.56
33554;BME280;19885;42.208;24.952;2022-11-20T06:35:43;99259.56;;;15.00;91.23
33554;BME280;19885;42.208;24.952;2022-11-20T06:38:08;99225.56;;;14.95;90.46
33554;BME280;19885;42.208;24.952;2022-11-20T06:40:33;99268.41;;;14.52;94.12
33554;BME280;19885;42.208;24.952;2022-11-20T06:42:59;99263.41;;;14.85;92.71
33554;BME280;19885;42.208;24.952;2022-11-20T06:45:24;99217.84;;;14.88;91.20
33554;BME280;19885;42.208;24.952;2022-11-20T06:47:50;99266.91;;;15.24;90.97
33554;BME280;19885;42.208;24.952;2022-11-20T06:50:15;99248.22;;;15.39;90.76
33554;BME280;19885;42.208;24.952;2022-11-20T06:52:40;99262.28;;;15.37;91.20
33554;BME280;19885;42.208;24.952;2022-11-20T06:55:06;99252.25;;;15.55;90.28
33554;BME280;19885;42.208;24.952;2022-11-20T06:57:32;99256.16;;;15.76;88.94
33554;BME280;19885;42.208;24.952;2022-11-20T06:59:57;99271.38;;;15.62;90.42
33554;BME280;19885;42.208;24.952;2022-11-20T07:02:23;99281.03;;;15.97;89.59
33554;BME280;19885;42.208;24.952;2022-11-20T07:04:48;99281.34;;;16.18;88.61
33554;BME280;19885;42.208;24.952;2022-11-20T07:07:13;99273.22;;;16.27;88.79
33554;BME280;19885;42.208;24.952;2022-11-20T07:09:39;99262.34;;;16.41;89.05
33554;BME280;19885;42.208;24.952;2022-11-20T07:12:04;99278.31;;;16.33;89.44
33554;BME280;19885;42.208;24.952;2022-11-20T07:14:30;99263.78;;;16.54;89.18
33554;BME280;19885;42.208;24.952;2022-11-20T07:16:55;99258.25;;;16.63;88.72
33554;BME280;19885;42.208;24.952;2022-11-20T07:19:21;99239.09;;;16.60;87.82
33554;BME280;19885;42.208;24.952;2022-11-20T07:21:46;99263.06;;;16.80;87.94
33554;BME280;19885;42.208;24.952;2022-11-20T07:24:14;99210.28;;;16.55;88.01
33554;BME280;19885;42.208;24.952;2022-11-20T07:26:39;99272.59;;;16.84;88.36
33554;BME280;19885;42.208;24.952;2022-11-20T07:29:04;99263.78;;;17.16;86.75
33554;BME280;19885;42.208;24.952;2022-11-20T07:31:30;99258.50;;;17.16;84.87
33554;BME280;19885;42.208;24.952;2022-11-20T07:33:55;99258.22;;;17.25;84.48
33554;BME280;19885;42.208;24.952;2022-11-20T07:36:21;99266.66;;;17.36;84.18
33554;BME280;19885;42.208;24.952;2022-11-20T07:38:46;99262.78;;;17.49;83.44
33554;BME280;19885;42.208;24.952;2022-11-20T07:41:11;99274.16;;;17.51;83.65
33554;BME280;19885;42.208;24.952;2022-11-20T07:43:37;99290.44;;;17.63;83.48
33554;BME280;19885;42.208;24.952;2022-11-20T07:46:02;99246.00;;;17.51;83.10
33554;BME280;19885;42.208;24.952;2022-11-20T07:48:29;99276.16;;;17.70;83.27
33554;BME280;19885;42.208;24.952;2022-11-20T07:50:55;99246.50;;;17.64;82.45
33554;BME280;19885;42.208;24.952;2022-11-20T07:53:21;99277.53;;;17.82;83.21
33554;BME280;19885;42.208;24.952;2022-11-20T07:55:47;99286.84;;;17.94;83.42
33554;BME280;19885;42.208;24.952;2022-11-20T07:58:15;99287.34;;;17.78;84.49
33554;BME280;19885;42.208;24.952;2022-11-20T08:00:41;99279.66;;;17.99;83.71
33554;BME280;19885;42.208;24.952;2022-11-20T08:03:07;99279.66;;;17.99;83.52
33554;BME280;19885;42.208;24.952;2022-11-20T08:05:33;99282.59;;;17.88;84.67
33554;BME280;19885;42.208;24.952;2022-11-20T08:07:58;99250.94;;;17.90;83.47
33554;BME280;19885;42.208;24.952;2022-11-20T08:10:24;99265.34;;;18.06;83.58
33554;BME280;19885;42.208;24.952;2022-11-20T08:12:51;99270.47;;;18.10;83.64
33554;BME280;19885;42.208;24.952;2022-11-20T08:15:36;99277.53;;;18.08;84.00
33554;BME280;19885;42.208;24.952;2022-11-20T08:18:10;99276.88;;;18.03;84.46
33554;BME280;19885;42.208;24.952;2022-11-20T08:20:37;99268.03;;;18.04;84.15
33554;BME280;19885;42.208;24.952;2022-11-20T08:23:07;99272.03;;;18.16;84.02
33554;BME280;19885;42.208;24.952;2022-11-20T08:25:35;99274.41;;;18.23;83.08
33554;BME280;19885;42.208;24.952;2022-11-20T08:28:04;99257.41;;;18.32;82.92
33554;BME280;19885;42.208;24.952;2022-11-20T08:30:30;99253.16;;;18.28;83.44
33554;BME280;19885;42.208;24.952;2022-11-20T08:33:02;99260.78;;;18.35;83.24
33554;BME280;19885;42.208;24.952;2022-11-20T08:35:27;99269.31;;;18.43;82.82
33554;BME280;19885;42.208;24.952;2022-11-20T08:37:53;99283.09;;;18.53;82.65
33554;BME280;19885;42.208;24.952;2022-11-20T08:40:18;99274.00;;;18.62;82.36
33554;BME280;19885;42.208;24.952;2022-11-20T08:42:51;99273.81;;;18.66;82.27
33554;BME280;19885;42.208;24.952;2022-11-20T08:45:17;99271.56;;;18.80;81.55
33554;BME280;19885;42.208;24.952;2022-11-20T08:47:44;99261.53;;;18.90;81.46
33554;BME280;19885;42.208;24.952;2022-11-20T08:50:10;99239.56;;;18.88;81.40
33554;BME280;19885;42.208;24.952;2022-11-20T08:52:37;99244.47;;;18.98;81.08
33554;BME280;19885;42.208;24.952;2022-11-20T08:55:04;99253.47;;;19.16;80.71
33554;BME280;19885;42.208;24.952;2022-11-20T08:57:37;99242.13;;;19.14;80.26
33554;BME280;19885;42.208;24.952;2022-11-20T09:00:04;99246.75;;;19.31;80.25
33554;BME280;19885;42.208;24.952;2022-11-20T09:02:30;99241.63;;;19.49;79.62
33554;BME280;19885;42.208;24.952;2022-11-20T09:04:58;99239.09;;;19.69;78.85
33554;BME280;19885;42.208;24.952;2022-11-20T09:07:26;99230.13;;;19.93;77.61
33554;BME280;19885;42.208;24.952;2022-11-20T09:09:51;99228.91;;;20.44;77.17
33554;BME280;19885;42.208;24.952;2022-11-20T09:12:16;99228.50;;;21.30;72.69
33554;BME280;19885;42.208;24.952;2022-11-20T09:14:42;99198.66;;;21.98;69.43
33554;BME280;19885;42.208;24.952;2022-11-20T09:17:10;99147.09;;;22.37;66.19
33554;BME280;19885;42.208;24.952;2022-11-20T09:19:38;99184.53;;;22.98;64.86
33554;BME280;19885;42.208;24.952;2022-11-20T09:22:04;99207.16;;;23.53;64.11
33554;BME280;19885;42.208;24.952;2022-11-20T09:24:29;99203.13;;;23.46;64.02
33554;BME280;19885;42.208;24.952;2022-11-20T09:26:57;99199.91;;;23.86;61.74
33554;BME280;19885;42.208;24.952;2022-11-20T09:29:22;99163.03;;;22.69;62.86
33554;BME280;19885;42.208;24.952;2022-11-20T09:31:47;99187.00;;;22.18;66.20
33554;BME280;19885;42.208;24.952;2022-11-20T09:34:13;99161.38;;;21.47;67.73
33554;BME280;19885;42.208;24.952;2022-11-20T09:36:38;99168.56;;;21.26;69.62
33554;BME280;19885;42.208;24.952;2022-11-20T09:39:04;99159.50;;;21.13;69.50
33554;BME280;19885;42.208;24.952;2022-11-20T09:44:57;99176.59;;;21.06;71.46
33554;BME280;19885;42.208;24.952;2022-11-20T09:47:36;99161.66;;;21.05;70.82
33554;BME280;19885;42.208;24.952;2022-11-20T09:51:31;99164.56;;;21.18;70.26
33554;BME280;19885;42.208;24.952;2022-11-20T09:55:57;99161.91;;;21.37;69.18
33554;BME280;19885;42.208;24.952;2022-11-20T09:58:33;99164.91;;;21.48;69.41
33554;BME280;19885;42.208;24.952;2022-11-20T10:01:26;99123.59;;;21.25;69.83
33554;BME280;19885;42.208;24.952;2022-11-20T10:06:30;99142.44;;;21.55;68.68
33554;BME280;19885;42.208;24.952;2022-11-20T10:14:26;99147.28;;;21.64;68.77
33554;BME280;19885;42.208;24.952;2022-11-20T10:17:16;99141.50;;;21.91;69.13
33554;BME280;19885;42.208;24.952;2022-11-20T10:23:00;99138.34;;;22.18;66.53
33554;BME280;19885;42.208;24.952;2022-11-20T10:25:50;99056.78;;;22.04;66.02
33554;BME280;19885;42.208;24.952;2022-11-20T10:31:37;99131.53;;;22.95;58.41
33554;BME280;19885;42.208;24.952;2022-11-20T10:36:44;99128.13;;;24.29;55.68
33554;BME280;19885;42.208;24.952;2022-11-20T10:39:15;99124.66;;;24.85;51.34
33554;BME280;19885;42.208;24.952;2022-11-20T10:41:44;99136.78;;;24.76;50.00
33554;BME280;19885;42.208;24.952;2022-11-20T10:44:21;99113.69;;;24.19;50.61
33554;BME280;19885;42.208;24.952;2022-11-20T10:47:12;99119.88;;;23.89;53.34
33554;BME280;19885;42.208;24.952;2022-11-20T10:49:39;99125.16;;;23.75;54.31
33554;BME280;19885;42.208;24.952;2022-11-20T10:52:09;99116.97;;;23.49;53.98
33554;BME280;19885;42.208;24.952;2022-11-20T10:54:43;99101.88;;;23.02;54.28
33554;BME280;19885;42.208;24.952;2022-11-20T10:59:59;99106.69;;;22.80;55.39
33554;BME280;19885;42.208;24.952;2022-11-20T11:02:53;99101.88;;;22.54;56.91
33554;BME280;19885;42.208;24.952;2022-11-20T11:07:46;99101.31;;;22.32;57.58
33554;BME280;19885;42.208;24.952;2022-11-20T11:10:28;99065.53;;;22.06;57.93
33554;BME280;19885;42.208;24.952;2022-11-20T11:12:57;99101.97;;;22.20;57.96
33554;BME280;19885;42.208;24.952;2022-11-20T11:15:40;99057.91;;;22.00;58.10
33554;BME280;19885;42.208;24.952;2022-11-20T11:18:10;99094.19;;;22.17;59.04
33554;BME280;19885;42.208;24.952;2022-11-20T11:20:36;99092.84;;;22.08;58.81
33554;BME280;19885;42.208;24.952;2022-11-20T11:23:02;99084.88;;;22.08;58.74
33554;BME280;19885;42.208;24.952;2022-11-20T11:25:35;99076.13;;;22.06;58.42
33554;BME280;19885;42.208;24.952;2022-11-20T11:30:41;99068.13;;;22.08;58.30
33554;BME280;19885;42.208;24.952;2022-11-20T11:33:23;99063.66;;;22.08;58.33
33554;BME280;19885;42.208;24.952;2022-11-20T11:35:54;99057.28;;;21.95;58.43
33554;BME280;19885;42.208;24.952;2022-11-20T11:38:34;99069.69;;;21.94;58.50
33554;BME280;19885;42.208;24.952;2022-11-20T11:41:03;99066.09;;;21.95;59.28
33554;BME280;19885;42.208;24.952;2022-11-20T11:43:32;99069.81;;;22.09;59.91
33554;BME280;19885;42.208;24.952;2022-11-20T11:51:41;99050.50;;;21.55;64.05
33554;BME280;19885;42.208;24.952;2022-11-20T11:54:17;99067.72;;;21.47;64.59
33554;BME280;19885;42.208;24.952;2022-11-20T11:56:48;99051.75;;;21.48;64.83
33554;BME280;19885;42.208;24.952;2022-11-20T11:59:22;98987.03;;;20.99;64.80
33554;BME280;19885;42.208;24.952;2022-11-20T12:01:59;99064.50;;;21.40;64.73
33554;BME280;19885;42.208;24.952;2022-11-20T12:04:50;99071.53;;;21.41;65.20
33554;BME280;19885;42.208;24.952;2022-11-20T12:07:40;99078.72;;;21.39;65.57
33554;BME280;19885;42.208;24.952;2022-11-20T12:10:17;99053.66;;;21.27;65.94
33554;BME280;19885;42.208;24.952;2022-11-20T12:12:55;99041.66;;;21.20;65.94
33554;BME280;19885;42.208;24.952;2022-11-20T12:15:29;99060.06;;;21.23;65.72
33554;BME280;19885;42.208;24.952;2022-11-20T12:17:55;98989.44;;;20.87;64.90
33554;BME280;19885;42.208;24.952;2022-11-20T12:20:29;99053.66;;;21.27;64.89
33554;BME280;19885;42.208;24.952;2022-11-20T12:23:35;99070.28;;;21.31;64.24
33554;BME280;19885;42.208;24.952;2022-11-20T12:26:13;99043.63;;;21.34;63.93
33554;BME280;19885;42.208;24.952;2022-11-20T12:28:53;98992.41;;;20.98;63.31
33554;BME280;19885;42.208;24.952;2022-11-20T12:34:39;99050.88;;;21.82;62.42
33554;BME280;19885;42.208;24.952;2022-11-20T12:36:56;99006.09;;;21.59;62.82
33554;BME280;19885;42.208;24.952;2022-11-20T12:39:34;99044.25;;;21.90;62.21
33554;BME280;19885;42.208;24.952;2022-11-20T12:45:20;99041.25;;;22.14;61.98
33554;BME280;19885;42.208;24.952;2022-11-20T13:00:31;99039.34;;;22.16;59.79
33554;BME280;19885;42.208;24.952;2022-11-20T13:06:06;99038.72;;;22.28;60.10
33554;BME280;19885;42.208;24.952;2022-11-20T13:08:40;99040.84;;;22.21;59.66
33554;BME280;19885;42.208;24.952;2022-11-20T13:19:28;99031.25;;;22.19;59.74
33554;BME280;19885;42.208;24.952;2022-11-20T13:21:54;99040.00;;;22.03;60.65
33554;BME280;19885;42.208;24.952;2022-11-20T13:26:59;99018.03;;;21.84;61.62
33554;BME280;19885;42.208;24.952;2022-11-20T13:29:24;99042.91;;;21.99;61.73
33554;BME280;19885;42.208;24.952;2022-11-20T13:31:50;99044.25;;;21.90;62.10
33554;BME280;19885;42.208;24.952;2022-11-20T13:34:26;99038.69;;;21.95;62.33
33554;BME280;19885;42.208;24.952;2022-11-20T13:36:54;99041.69;;;21.89;62.60
33554;BME280;19885;42.208;24.952;2022-11-20T13:39:46;99040.25;;;21.82;63.10
33554;BME280;19885;42.208;24.952;2022-11-20T13:44:50;99067.13;;;21.76;64.93
33554;BME280;19885;42.208;24.952;2022-11-20T13:47:27;99082.78;;;21.63;66.24
33554;BME280;19885;42.208;24.952;2022-11-20T13:49:55;99106.38;;;21.33;71.56
33554;BME280;19885;42.208;24.952;2022-11-20T13:52:31;99108.63;;;20.87;75.88
33554;BME280;19885;42.208;24.952;2022-11-20T13:55:26;99105.53;;;20.58;77.04
33554;BME280;19885;42.208;24.952;2022-11-20T14:00:25;99058.66;;;19.63;79.61
33554;BME280;19885;42.208;24.952;2022-11-20T14:03:10;99113.09;;;19.68;81.87
33554;BME280;19885;42.208;24.952;2022-11-20T14:05:50;99123.97;;;19.61;81.99
33554;BME280;19885;42.208;24.952;2022-11-20T14:11:17;99123.03;;;19.42;82.89
33554;BME280;19885;42.208;24.952;2022-11-20T14:13:56;99142.78;;;19.32;84.19
33554;BME280;19885;42.208;24.952;2022-11-20T14:16:28;99143.78;;;19.06;84.12
33554;BME280;19885;42.208;24.952;2022-11-20T14:18:57;99135.00;;;18.84;85.30
33554;BME280;19885;42.208;24.952;2022-11-20T14:21:27;99165.88;;;18.82;79.69
33554;BME280;19885;42.208;24.952;2022-11-20T14:24:06;99161.19;;;18.67;79.65
33554;BME280;19885;42.208;24.952;2022-11-20T14:26:32;99149.41;;;18.52;80.81
33554;BME280;19885;42.208;24.952;2022-11-20T14:28:59;99132.53;;;18.31;81.38